This is the latest recevied weather packets stored in our database for station/object EA5JMY-10. If no packets are shown the sender has not sent any weather packets the latest 1 day(s).
| Time | Temp. | Humidity | Pressure | Rain* | Wind** | Luminosity | Snow |
|---|---|---|---|---|---|---|---|
| 1778070619 | 22.22° C | 47% | 1014.5 hPa | - | - | - | - |
| 1778069719 | 22.78° C | 47% | 1014.7 hPa | - | - | - | - |
| 1778068819 | 23.33° C | 44% | 1014.6 hPa | - | - | - | - |
| 1778067919 | 24.44° C | 41% | 1014.6 hPa | - | - | - | - |
| 1778067019 | 25.56° C | 39% | 1014.6 hPa | - | - | - | - |
| 1778066118 | 24.44° C | 40% | 1014.8 hPa | - | - | - | - |
| 1778065218 | 25.56° C | 38% | 1014.9 hPa | - | - | - | - |
| 1778064318 | 27.78° C | 32% | 1014.9 hPa | - | - | - | - |
| 1778063418 | 26.11° C | 36% | 1014.9 hPa | - | - | - | - |
| 1778062518 | 27.78° C | 34% | 1014.9 hPa | - | - | - | - |
| 1778061618 | 26.67° C | 36% | 1015 hPa | - | - | - | - |
| 1778060718 | 24.44° C | 41% | 1014.8 hPa | - | - | - | - |
| 1778059818 | 26.67° C | 37% | 1014.7 hPa | - | - | - | - |
| 1778058918 | 25° C | 40% | 1014.7 hPa | - | - | - | - |
| 1778058017 | 24.44° C | 44% | 1014.6 hPa | - | - | - | - |
| 1778057117 | 23.33° C | 45% | 1014.6 hPa | - | - | - | - |
| 1778056217 | 23.89° C | 44% | 1014.5 hPa | - | - | - | - |
| 1778055316 | 23.33° C | 44% | 1014.7 hPa | - | - | - | - |
| 1778054416 | 24.44° C | 40% | 1014.5 hPa | - | - | - | - |
| 1778053516 | 21.11° C | 48% | 1014.5 hPa | - | - | - | - |
| 1778052616 | 21.67° C | 48% | 1014.6 hPa | - | - | - | - |
| 1778051716 | 21.67° C | 50% | 1014.5 hPa | - | - | - | - |
| 1778050816 | 23.89° C | 45% | 1014.4 hPa | - | - | - | - |
| 1778049915 | 27.78° C | 37% | 1014.2 hPa | - | - | - | - |
| 1778049015 | 21.67° C | 51% | 1014.5 hPa | - | - | - | - |
* Rain since midnight (hover to see other rain measurements)
** Current wind speed in m/s (hover to see current wind gust speed)